sensor_id;sensor_type;location;lat;lon;timestamp;P1;durP1;ratioP1;P2;durP2;ratioP2
5754;SDS011;2902;42.130;24.732;2023-04-29T00:02:16;10.10;;;7.43;;
5754;SDS011;2902;42.130;24.732;2023-04-29T00:04:42;10.87;;;8.63;;
5754;SDS011;2902;42.130;24.732;2023-04-29T00:07:09;10.00;;;9.03;;
5754;SDS011;2902;42.130;24.732;2023-04-29T00:09:39;8.73;;;7.97;;
5754;SDS011;2902;42.130;24.732;2023-04-29T00:12:07;10.90;;;9.87;;
5754;SDS011;2902;42.130;24.732;2023-04-29T00:14:34;9.90;;;8.90;;
5754;SDS011;2902;42.130;24.732;2023-04-29T00:17:01;11.97;;;9.57;;
5754;SDS011;2902;42.130;24.732;2023-04-29T00:19:28;11.03;;;9.17;;
5754;SDS011;2902;42.130;24.732;2023-04-29T00:21:55;9.47;;;8.63;;
5754;SDS011;2902;42.130;24.732;2023-04-29T00:24:22;11.40;;;8.93;;
5754;SDS011;2902;42.130;24.732;2023-04-29T00:26:49;8.87;;;8.07;;
5754;SDS011;2902;42.130;24.732;2023-04-29T00:29:17;11.37;;;8.53;;
5754;SDS011;2902;42.130;24.732;2023-04-29T00:31:44;10.40;;;9.60;;
5754;SDS011;2902;42.130;24.732;2023-04-29T00:34:11;9.00;;;8.40;;
5754;SDS011;2902;42.130;24.732;2023-04-29T00:36:38;8.93;;;8.17;;
5754;SDS011;2902;42.130;24.732;2023-04-29T00:39:04;9.60;;;8.80;;
5754;SDS011;2902;42.130;24.732;2023-04-29T00:41:32;9.00;;;8.23;;
5754;SDS011;2902;42.130;24.732;2023-04-29T00:43:58;9.10;;;8.30;;
5754;SDS011;2902;42.130;24.732;2023-04-29T00:46:26;9.63;;;8.73;;
5754;SDS011;2902;42.130;24.732;2023-04-29T00:48:53;10.67;;;8.87;;
5754;SDS011;2902;42.130;24.732;2023-04-29T00:51:20;11.00;;;8.13;;
5754;SDS011;2902;42.130;24.732;2023-04-29T00:53:47;9.17;;;7.93;;
5754;SDS011;2902;42.130;24.732;2023-04-29T00:56:14;9.60;;;8.80;;
5754;SDS011;2902;42.130;24.732;2023-04-29T00:58:41;9.07;;;8.37;;
5754;SDS011;2902;42.130;24.732;2023-04-29T01:01:13;10.50;;;8.93;;
5754;SDS011;2902;42.130;24.732;2023-04-29T01:03:43;9.10;;;8.30;;
5754;SDS011;2902;42.130;24.732;2023-04-29T01:06:14;8.77;;;8.07;;
5754;SDS011;2902;42.130;24.732;2023-04-29T01:08:51;8.77;;;7.93;;
5754;SDS011;2902;42.130;24.732;2023-04-29T01:11:33;8.73;;;8.03;;
5754;SDS011;2902;42.130;24.732;2023-04-29T01:14:05;8.47;;;7.77;;
5754;SDS011;2902;42.130;24.732;2023-04-29T01:16:33;8.50;;;7.70;;
5754;SDS011;2902;42.130;24.732;2023-04-29T01:19:15;7.60;;;6.93;;
5754;SDS011;2902;42.130;24.732;2023-04-29T01:21:55;9.00;;;8.13;;
5754;SDS011;2902;42.130;24.732;2023-04-29T01:24:23;9.00;;;7.97;;
5754;SDS011;2902;42.130;24.732;2023-04-29T01:26:52;7.97;;;7.37;;
5754;SDS011;2902;42.130;24.732;2023-04-29T01:29:25;8.23;;;7.60;;
5754;SDS011;2902;42.130;24.732;2023-04-29T01:32:01;11.27;;;8.03;;
5754;SDS011;2902;42.130;24.732;2023-04-29T01:34:33;9.23;;;7.43;;
5754;SDS011;2902;42.130;24.732;2023-04-29T01:37:09;8.40;;;7.73;;
5754;SDS011;2902;42.130;24.732;2023-04-29T01:39:47;7.27;;;6.60;;
5754;SDS011;2902;42.130;24.732;2023-04-29T01:42:23;8.57;;;7.77;;
5754;SDS011;2902;42.130;24.732;2023-04-29T01:44:56;7.77;;;7.17;;
5754;SDS011;2902;42.130;24.732;2023-04-29T01:47:26;8.27;;;7.57;;
5754;SDS011;2902;42.130;24.732;2023-04-29T01:49:54;10.43;;;8.07;;
5754;SDS011;2902;42.130;24.732;2023-04-29T01:52:21;9.43;;;7.47;;
5754;SDS011;2902;42.130;24.732;2023-04-29T01:54:49;8.27;;;7.63;;
5754;SDS011;2902;42.130;24.732;2023-04-29T01:57:16;7.57;;;7.03;;
5754;SDS011;2902;42.130;24.732;2023-04-29T01:59:43;8.87;;;7.63;;
5754;SDS011;2902;42.130;24.732;2023-04-29T02:02:10;8.20;;;7.60;;
5754;SDS011;2902;42.130;24.732;2023-04-29T02:04:39;8.07;;;7.57;;
5754;SDS011;2902;42.130;24.732;2023-04-29T02:07:07;8.77;;;7.93;;
5754;SDS011;2902;42.130;24.732;2023-04-29T02:09:33;8.67;;;7.67;;
5754;SDS011;2902;42.130;24.732;2023-04-29T02:12:01;9.13;;;8.20;;
5754;SDS011;2902;42.130;24.732;2023-04-29T02:14:29;8.67;;;8.07;;
5754;SDS011;2902;42.130;24.732;2023-04-29T02:16:55;9.03;;;8.33;;
5754;SDS011;2902;42.130;24.732;2023-04-29T02:19:22;8.40;;;7.80;;
5754;SDS011;2902;42.130;24.732;2023-04-29T02:21:49;11.03;;;8.13;;
5754;SDS011;2902;42.130;24.732;2023-04-29T02:24:15;15.03;;;9.17;;
5754;SDS011;2902;42.130;24.732;2023-04-29T02:26:42;8.30;;;7.70;;
5754;SDS011;2902;42.130;24.732;2023-04-29T02:29:10;9.70;;;8.50;;
5754;SDS011;2902;42.130;24.732;2023-04-29T02:31:37;9.43;;;8.50;;
5754;SDS011;2902;42.130;24.732;2023-04-29T02:34:04;9.50;;;8.50;;
5754;SDS011;2902;42.130;24.732;2023-04-29T02:36:31;9.97;;;9.13;;
5754;SDS011;2902;42.130;24.732;2023-04-29T02:38:58;9.70;;;8.77;;
5754;SDS011;2902;42.130;24.732;2023-04-29T02:41:25;10.17;;;9.07;;
5754;SDS011;2902;42.130;24.732;2023-04-29T02:43:52;13.03;;;9.83;;
5754;SDS011;2902;42.130;24.732;2023-04-29T02:46:20;9.87;;;9.07;;
5754;SDS011;2902;42.130;24.732;2023-04-29T02:48:47;11.47;;;10.47;;
5754;SDS011;2902;42.130;24.732;2023-04-29T02:51:13;12.00;;;10.93;;
5754;SDS011;2902;42.130;24.732;2023-04-29T02:53:40;12.57;;;11.40;;
5754;SDS011;2902;42.130;24.732;2023-04-29T02:56:07;15.10;;;11.83;;
5754;SDS011;2902;42.130;24.732;2023-04-29T02:58:33;14.43;;;11.73;;
5754;SDS011;2902;42.130;24.732;2023-04-29T03:01:00;13.53;;;12.33;;
5754;SDS011;2902;42.130;24.732;2023-04-29T03:03:29;14.10;;;11.50;;
5754;SDS011;2902;42.130;24.732;2023-04-29T03:05:55;12.53;;;11.53;;
5754;SDS011;2902;42.130;24.732;2023-04-29T03:08:22;12.60;;;11.37;;
5754;SDS011;2902;42.130;24.732;2023-04-29T03:10:49;14.00;;;11.03;;
5754;SDS011;2902;42.130;24.732;2023-04-29T03:13:16;15.63;;;12.00;;
5754;SDS011;2902;42.130;24.732;2023-04-29T03:15:42;12.57;;;11.17;;
5754;SDS011;2902;42.130;24.732;2023-04-29T03:18:09;13.43;;;11.40;;
5754;SDS011;2902;42.130;24.732;2023-04-29T03:20:37;16.20;;;11.00;;
5754;SDS011;2902;42.130;24.732;2023-04-29T03:23:04;17.57;;;11.80;;
5754;SDS011;2902;42.130;24.732;2023-04-29T03:25:30;21.07;;;12.17;;
5754;SDS011;2902;42.130;24.732;2023-04-29T03:27:57;15.03;;;12.30;;
5754;SDS011;2902;42.130;24.732;2023-04-29T03:30:24;14.83;;;11.60;;
5754;SDS011;2902;42.130;24.732;2023-04-29T03:32:50;13.27;;;11.97;;
5754;SDS011;2902;42.130;24.732;2023-04-29T03:35:17;13.50;;;12.10;;
5754;SDS011;2902;42.130;24.732;2023-04-29T03:37:45;19.57;;;12.20;;
5754;SDS011;2902;42.130;24.732;2023-04-29T03:40:12;13.33;;;11.60;;
5754;SDS011;2902;42.130;24.732;2023-04-29T03:42:39;12.63;;;11.33;;
5754;SDS011;2902;42.130;24.732;2023-04-29T03:45:06;19.23;;;13.00;;
5754;SDS011;2902;42.130;24.732;2023-04-29T03:47:34;13.00;;;10.43;;
5754;SDS011;2902;42.130;24.732;2023-04-29T03:50:01;14.53;;;11.17;;
5754;SDS011;2902;42.130;24.732;2023-04-29T03:52:28;12.93;;;11.40;;
5754;SDS011;2902;42.130;24.732;2023-04-29T03:54:56;17.93;;;11.13;;
5754;SDS011;2902;42.130;24.732;2023-04-29T03:57:23;15.53;;;10.77;;
5754;SDS011;2902;42.130;24.732;2023-04-29T03:59:49;10.97;;;9.97;;
5754;SDS011;2902;42.130;24.732;2023-04-29T04:02:16;17.37;;;11.03;;
5754;SDS011;2902;42.130;24.732;2023-04-29T04:04:43;15.07;;;9.70;;
5754;SDS011;2902;42.130;24.732;2023-04-29T04:07:10;11.27;;;10.03;;
5754;SDS011;2902;42.130;24.732;2023-04-29T04:09:37;10.50;;;9.53;;
5754;SDS011;2902;42.130;24.732;2023-04-29T04:12:05;10.47;;;9.43;;
5754;SDS011;2902;42.130;24.732;2023-04-29T04:14:32;10.20;;;8.33;;
5754;SDS011;2902;42.130;24.732;2023-04-29T04:16:59;10.27;;;8.30;;
5754;SDS011;2902;42.130;24.732;2023-04-29T04:19:26;8.50;;;7.70;;
5754;SDS011;2902;42.130;24.732;2023-04-29T04:21:53;8.63;;;6.67;;
5754;SDS011;2902;42.130;24.732;2023-04-29T04:24:20;8.03;;;6.93;;
5754;SDS011;2902;42.130;24.732;2023-04-29T04:26:46;8.70;;;7.00;;
5754;SDS011;2902;42.130;24.732;2023-04-29T04:29:14;7.07;;;6.57;;
5754;SDS011;2902;42.130;24.732;2023-04-29T04:31:41;6.70;;;6.20;;
5754;SDS011;2902;42.130;24.732;2023-04-29T04:34:08;13.03;;;6.20;;
5754;SDS011;2902;42.130;24.732;2023-04-29T04:36:34;6.37;;;5.97;;
5754;SDS011;2902;42.130;24.732;2023-04-29T04:39:01;8.30;;;6.63;;
5754;SDS011;2902;42.130;24.732;2023-04-29T04:41:28;6.60;;;6.10;;
5754;SDS011;2902;42.130;24.732;2023-04-29T04:43:56;8.27;;;6.57;;
5754;SDS011;2902;42.130;24.732;2023-04-29T04:46:24;7.10;;;5.47;;
5754;SDS011;2902;42.130;24.732;2023-04-29T04:48:51;6.30;;;5.80;;
5754;SDS011;2902;42.130;24.732;2023-04-29T04:51:17;6.23;;;5.53;;
5754;SDS011;2902;42.130;24.732;2023-04-29T04:53:44;6.30;;;5.83;;
5754;SDS011;2902;42.130;24.732;2023-04-29T04:56:11;48.57;;;26.83;;
5754;SDS011;2902;42.130;24.732;2023-04-29T04:58:38;23.67;;;12.37;;
5754;SDS011;2902;42.130;24.732;2023-04-29T05:01:05;27.50;;;13.43;;
5754;SDS011;2902;42.130;24.732;2023-04-29T05:03:33;10.43;;;6.80;;
5754;SDS011;2902;42.130;24.732;2023-04-29T05:05:59;25.00;;;13.70;;
5754;SDS011;2902;42.130;24.732;2023-04-29T05:08:26;24.37;;;15.03;;
5754;SDS011;2902;42.130;24.732;2023-04-29T05:10:53;11.17;;;7.93;;
5754;SDS011;2902;42.130;24.732;2023-04-29T05:13:19;10.17;;;6.93;;
5754;SDS011;2902;42.130;24.732;2023-04-29T05:15:46;7.37;;;6.20;;
5754;SDS011;2902;42.130;24.732;2023-04-29T05:18:13;12.13;;;9.83;;
5754;SDS011;2902;42.130;24.732;2023-04-29T05:20:41;11.23;;;9.50;;
5754;SDS011;2902;42.130;24.732;2023-04-29T05:23:08;19.43;;;9.00;;
5754;SDS011;2902;42.130;24.732;2023-04-29T05:25:35;12.10;;;7.40;;
5754;SDS011;2902;42.130;24.732;2023-04-29T05:28:01;8.30;;;7.10;;
5754;SDS011;2902;42.130;24.732;2023-04-29T05:30:28;11.17;;;6.27;;
5754;SDS011;2902;42.130;24.732;2023-04-29T05:32:55;6.47;;;5.87;;
5754;SDS011;2902;42.130;24.732;2023-04-29T05:35:22;17.40;;;7.10;;
5754;SDS011;2902;42.130;24.732;2023-04-29T05:37:50;184.37;;;19.53;;
5754;SDS011;2902;42.130;24.732;2023-04-29T05:40:17;14.13;;;6.50;;
5754;SDS011;2902;42.130;24.732;2023-04-29T05:42:44;7.97;;;5.37;;
5754;SDS011;2902;42.130;24.732;2023-04-29T05:45:11;9.60;;;5.30;;
5754;SDS011;2902;42.130;24.732;2023-04-29T05:47:38;5.97;;;5.40;;
5754;SDS011;2902;42.130;24.732;2023-04-29T05:50:05;10.67;;;5.87;;
5754;SDS011;2902;42.130;24.732;2023-04-29T05:52:32;6.23;;;5.63;;
5754;SDS011;2902;42.130;24.732;2023-04-29T05:55:00;6.30;;;5.23;;
5754;SDS011;2902;42.130;24.732;2023-04-29T05:57:27;17.33;;;5.57;;
5754;SDS011;2902;42.130;24.732;2023-04-29T05:59:53;8.20;;;4.27;;
5754;SDS011;2902;42.130;24.732;2023-04-29T06:02:20;8.33;;;4.53;;
5754;SDS011;2902;42.130;24.732;2023-04-29T06:04:47;4.90;;;4.43;;
5754;SDS011;2902;42.130;24.732;2023-04-29T06:07:14;5.70;;;5.20;;
5754;SDS011;2902;42.130;24.732;2023-04-29T06:09:41;6.03;;;3.50;;
5754;SDS011;2902;42.130;24.732;2023-04-29T06:12:09;5.97;;;4.37;;
5754;SDS011;2902;42.130;24.732;2023-04-29T06:14:36;6.23;;;4.90;;
5754;SDS011;2902;42.130;24.732;2023-04-29T06:17:03;4.60;;;3.97;;
5754;SDS011;2902;42.130;24.732;2023-04-29T06:19:29;7.20;;;4.37;;
5754;SDS011;2902;42.130;24.732;2023-04-29T06:21:57;10.47;;;5.17;;
5754;SDS011;2902;42.130;24.732;2023-04-29T06:24:24;5.20;;;4.37;;
5754;SDS011;2902;42.130;24.732;2023-04-29T06:26:51;10.67;;;4.70;;
5754;SDS011;2902;42.130;24.732;2023-04-29T06:29:19;5.97;;;3.67;;
5754;SDS011;2902;42.130;24.732;2023-04-29T06:31:45;18.57;;;4.93;;
5754;SDS011;2902;42.130;24.732;2023-04-29T06:34:12;21.37;;;4.40;;
5754;SDS011;2902;42.130;24.732;2023-04-29T06:36:39;6.47;;;5.07;;
5754;SDS011;2902;42.130;24.732;2023-04-29T06:39:06;11.90;;;4.00;;
5754;SDS011;2902;42.130;24.732;2023-04-29T06:41:32;20.47;;;5.27;;
5754;SDS011;2902;42.130;24.732;2023-04-29T06:44:00;10.17;;;4.70;;
5754;SDS011;2902;42.130;24.732;2023-04-29T06:46:29;5.30;;;3.50;;
5754;SDS011;2902;42.130;24.732;2023-04-29T06:48:55;7.40;;;3.63;;
5754;SDS011;2902;42.130;24.732;2023-04-29T06:51:22;9.73;;;4.17;;
5754;SDS011;2902;42.130;24.732;2023-04-29T06:53:49;4.90;;;3.57;;
5754;SDS011;2902;42.130;24.732;2023-04-29T06:56:15;17.37;;;3.97;;
5754;SDS011;2902;42.130;24.732;2023-04-29T06:58:42;6.73;;;3.57;;
5754;SDS011;2902;42.130;24.732;2023-04-29T07:01:09;5.67;;;3.27;;
5754;SDS011;2902;42.130;24.732;2023-04-29T07:03:37;23.57;;;4.60;;
5754;SDS011;2902;42.130;24.732;2023-04-29T07:06:04;6.50;;;3.30;;
5754;SDS011;2902;42.130;24.732;2023-04-29T07:08:31;5.33;;;3.50;;
5754;SDS011;2902;42.130;24.732;2023-04-29T07:10:58;3.67;;;3.47;;
5754;SDS011;2902;42.130;24.732;2023-04-29T07:13:25;6.67;;;3.63;;
5754;SDS011;2902;42.130;24.732;2023-04-29T07:15:51;6.90;;;4.10;;
5754;SDS011;2902;42.130;24.732;2023-04-29T07:18:18;3.90;;;3.37;;
5754;SDS011;2902;42.130;24.732;2023-04-29T07:20:46;5.07;;;3.03;;
5754;SDS011;2902;42.130;24.732;2023-04-29T07:23:15;15.10;;;4.93;;
5754;SDS011;2902;42.130;24.732;2023-04-29T07:25:41;7.43;;;3.97;;
5754;SDS011;2902;42.130;24.732;2023-04-29T07:28:08;3.43;;;3.07;;
5754;SDS011;2902;42.130;24.732;2023-04-29T07:30:35;5.50;;;2.83;;
5754;SDS011;2902;42.130;24.732;2023-04-29T07:33:01;3.47;;;2.93;;
5754;SDS011;2902;42.130;24.732;2023-04-29T07:35:29;4.00;;;3.60;;
5754;SDS011;2902;42.130;24.732;2023-04-29T07:37:57;3.47;;;3.17;;
5754;SDS011;2902;42.130;24.732;2023-04-29T07:40:23;3.87;;;3.50;;
5754;SDS011;2902;42.130;24.732;2023-04-29T07:42:50;4.07;;;3.77;;
5754;SDS011;2902;42.130;24.732;2023-04-29T07:45:17;5.57;;;3.17;;
5754;SDS011;2902;42.130;24.732;2023-04-29T07:47:43;13.77;;;3.80;;
5754;SDS011;2902;42.130;24.732;2023-04-29T07:50:11;5.10;;;3.43;;
5754;SDS011;2902;42.130;24.732;2023-04-29T07:52:37;3.53;;;3.30;;
5754;SDS011;2902;42.130;24.732;2023-04-29T07:55:06;7.17;;;4.03;;
5754;SDS011;2902;42.130;24.732;2023-04-29T07:57:33;4.90;;;3.43;;
5754;SDS011;2902;42.130;24.732;2023-04-29T08:00:00;3.77;;;3.30;;
5754;SDS011;2902;42.130;24.732;2023-04-29T08:02:28;4.67;;;4.27;;
5754;SDS011;2902;42.130;24.732;2023-04-29T08:04:54;4.43;;;3.30;;
5754;SDS011;2902;42.130;24.732;2023-04-29T08:07:21;3.40;;;3.20;;
5754;SDS011;2902;42.130;24.732;2023-04-29T08:09:48;4.30;;;3.93;;
5754;SDS011;2902;42.130;24.732;2023-04-29T08:12:16;6.93;;;4.07;;
5754;SDS011;2902;42.130;24.732;2023-04-29T08:14:42;3.33;;;3.13;;
5754;SDS011;2902;42.130;24.732;2023-04-29T08:17:09;12.03;;;4.50;;
5754;SDS011;2902;42.130;24.732;2023-04-29T08:19:36;7.10;;;3.67;;
5754;SDS011;2902;42.130;24.732;2023-04-29T08:22:02;3.57;;;3.27;;
5754;SDS011;2902;42.130;24.732;2023-04-29T08:24:29;4.43;;;3.27;;
5754;SDS011;2902;42.130;24.732;2023-04-29T08:26:57;8.23;;;3.53;;
5754;SDS011;2902;42.130;24.732;2023-04-29T08:29:25;8.97;;;3.47;;
5754;SDS011;2902;42.130;24.732;2023-04-29T08:31:52;4.93;;;3.73;;
5754;SDS011;2902;42.130;24.732;2023-04-29T08:34:19;8.33;;;4.30;;
5754;SDS011;2902;42.130;24.732;2023-04-29T08:36:46;3.63;;;3.30;;
5754;SDS011;2902;42.130;24.732;2023-04-29T08:39:13;3.67;;;3.40;;
5754;SDS011;2902;42.130;24.732;2023-04-29T08:41:40;3.80;;;3.50;;
5754;SDS011;2902;42.130;24.732;2023-04-29T08:44:08;4.73;;;3.67;;
5754;SDS011;2902;42.130;24.732;2023-04-29T08:46:37;6.23;;;4.13;;
5754;SDS011;2902;42.130;24.732;2023-04-29T08:49:04;6.73;;;3.67;;
5754;SDS011;2902;42.130;24.732;2023-04-29T08:51:32;5.30;;;3.77;;
5754;SDS011;2902;42.130;24.732;2023-04-29T08:53:59;4.13;;;3.77;;
5754;SDS011;2902;42.130;24.732;2023-04-29T08:56:26;6.43;;;3.87;;
5754;SDS011;2902;42.130;24.732;2023-04-29T08:58:55;6.20;;;3.80;;
5754;SDS011;2902;42.130;24.732;2023-04-29T09:01:24;7.10;;;3.97;;
5754;SDS011;2902;42.130;24.732;2023-04-29T09:03:55;6.90;;;4.20;;
5754;SDS011;2902;42.130;24.732;2023-04-29T09:06:34;7.27;;;3.90;;
5754;SDS011;2902;42.130;24.732;2023-04-29T09:09:00;3.90;;;3.70;;
5754;SDS011;2902;42.130;24.732;2023-04-29T09:11:28;8.33;;;4.07;;
5754;SDS011;2902;42.130;24.732;2023-04-29T09:13:57;4.40;;;4.10;;
5754;SDS011;2902;42.130;24.732;2023-04-29T09:16:25;4.00;;;3.57;;
5754;SDS011;2902;42.130;24.732;2023-04-29T09:18:52;4.07;;;3.70;;
5754;SDS011;2902;42.130;24.732;2023-04-29T09:21:21;7.07;;;4.57;;
5754;SDS011;2902;42.130;24.732;2023-04-29T09:23:49;5.47;;;3.90;;
5754;SDS011;2902;42.130;24.732;2023-04-29T09:26:17;4.17;;;3.87;;
5754;SDS011;2902;42.130;24.732;2023-04-29T09:28:45;6.33;;;4.03;;
5754;SDS011;2902;42.130;24.732;2023-04-29T09:31:13;9.13;;;3.80;;
5754;SDS011;2902;42.130;24.732;2023-04-29T09:33:50;5.80;;;4.30;;
5754;SDS011;2902;42.130;24.732;2023-04-29T09:36:39;11.33;;;4.70;;
5754;SDS011;2902;42.130;24.732;2023-04-29T09:39:09;12.17;;;4.70;;
5754;SDS011;2902;42.130;24.732;2023-04-29T09:41:38;5.43;;;3.87;;
5754;SDS011;2902;42.130;24.732;2023-04-29T09:44:06;4.03;;;3.70;;
5754;SDS011;2902;42.130;24.732;2023-04-29T09:46:33;4.00;;;3.60;;
5754;SDS011;2902;42.130;24.732;2023-04-29T09:49:01;6.50;;;4.07;;
5754;SDS011;2902;42.130;24.732;2023-04-29T09:51:28;4.80;;;4.40;;
5754;SDS011;2902;42.130;24.732;2023-04-29T09:53:58;4.80;;;3.33;;
5754;SDS011;2902;42.130;24.732;2023-04-29T09:56:27;4.13;;;3.80;;
5754;SDS011;2902;42.130;24.732;2023-04-29T09:58:55;4.13;;;3.93;;
5754;SDS011;2902;42.130;24.732;2023-04-29T10:01:27;7.90;;;4.17;;
5754;SDS011;2902;42.130;24.732;2023-04-29T10:03:56;6.27;;;4.17;;
5754;SDS011;2902;42.130;24.732;2023-04-29T10:06:23;6.03;;;3.63;;
5754;SDS011;2902;42.130;24.732;2023-04-29T10:08:51;5.00;;;3.53;;
5754;SDS011;2902;42.130;24.732;2023-04-29T10:11:19;3.90;;;3.17;;
5754;SDS011;2902;42.130;24.732;2023-04-29T10:13:46;3.63;;;3.00;;
5754;SDS011;2902;42.130;24.732;2023-04-29T10:16:20;3.83;;;3.30;;
5754;SDS011;2902;42.130;24.732;2023-04-29T10:18:53;2.70;;;2.50;;
5754;SDS011;2902;42.130;24.732;2023-04-29T10:21:23;3.30;;;3.10;;
5754;SDS011;2902;42.130;24.732;2023-04-29T10:23:53;3.73;;;2.50;;
5754;SDS011;2902;42.130;24.732;2023-04-29T10:26:23;3.70;;;3.50;;
5754;SDS011;2902;42.130;24.732;2023-04-29T10:28:53;3.37;;;2.73;;
5754;SDS011;2902;42.130;24.732;2023-04-29T10:31:21;3.90;;;2.90;;
5754;SDS011;2902;42.130;24.732;2023-04-29T10:33:50;3.40;;;2.90;;
5754;SDS011;2902;42.130;24.732;2023-04-29T10:36:21;3.30;;;3.10;;
5754;SDS011;2902;42.130;24.732;2023-04-29T10:38:49;10.13;;;3.43;;
5754;SDS011;2902;42.130;24.732;2023-04-29T10:41:19;4.50;;;3.20;;
5754;SDS011;2902;42.130;24.732;2023-04-29T10:43:50;3.93;;;3.07;;
5754;SDS011;2902;42.130;24.732;2023-04-29T10:46:18;5.27;;;3.07;;
5754;SDS011;2902;42.130;24.732;2023-04-29T10:48:46;3.33;;;3.00;;
5754;SDS011;2902;42.130;24.732;2023-04-29T10:51:26;7.90;;;3.47;;
5754;SDS011;2902;42.130;24.732;2023-04-29T10:54:05;8.33;;;3.20;;
5754;SDS011;2902;42.130;24.732;2023-04-29T10:56:36;4.77;;;3.10;;
5754;SDS011;2902;42.130;24.732;2023-04-29T10:59:06;3.10;;;2.73;;
5754;SDS011;2902;42.130;24.732;2023-04-29T11:01:45;4.43;;;3.20;;
5754;SDS011;2902;42.130;24.732;2023-04-29T11:04:13;3.33;;;2.17;;
5754;SDS011;2902;42.130;24.732;2023-04-29T11:06:42;3.20;;;2.90;;
5754;SDS011;2902;42.130;24.732;2023-04-29T11:09:12;3.27;;;2.97;;
5754;SDS011;2902;42.130;24.732;2023-04-29T11:11:56;2.73;;;2.53;;
5754;SDS011;2902;42.130;24.732;2023-04-29T11:14:27;4.00;;;3.07;;
5754;SDS011;2902;42.130;24.732;2023-04-29T11:16:56;3.33;;;3.13;;
5754;SDS011;2902;42.130;24.732;2023-04-29T11:19:24;3.83;;;3.00;;
5754;SDS011;2902;42.130;24.732;2023-04-29T11:22:08;4.27;;;3.13;;
5754;SDS011;2902;42.130;24.732;2023-04-29T11:24:47;3.40;;;3.10;;
5754;SDS011;2902;42.130;24.732;2023-04-29T11:27:15;9.90;;;2.83;;
5754;SDS011;2902;42.130;24.732;2023-04-29T11:29:45;3.93;;;3.00;;
5754;SDS011;2902;42.130;24.732;2023-04-29T11:32:12;4.00;;;2.87;;
5754;SDS011;2902;42.130;24.732;2023-04-29T11:34:39;3.10;;;2.80;;
5754;SDS011;2902;42.130;24.732;2023-04-29T11:37:05;2.70;;;2.50;;
5754;SDS011;2902;42.130;24.732;2023-04-29T11:39:32;3.83;;;2.60;;
5754;SDS011;2902;42.130;24.732;2023-04-29T11:42:03;4.10;;;2.40;;
5754;SDS011;2902;42.130;24.732;2023-04-29T11:44:32;3.80;;;2.97;;
5754;SDS011;2902;42.130;24.732;2023-04-29T11:47:04;3.00;;;2.33;;
5754;SDS011;2902;42.130;24.732;2023-04-29T11:49:31;2.80;;;2.27;;
5754;SDS011;2902;42.130;24.732;2023-04-29T11:51:58;8.03;;;2.30;;
5754;SDS011;2902;42.130;24.732;2023-04-29T11:54:25;4.77;;;2.50;;
5754;SDS011;2902;42.130;24.732;2023-04-29T11:56:52;6.03;;;2.57;;
5754;SDS011;2902;42.130;24.732;2023-04-29T11:59:20;5.63;;;3.03;;
5754;SDS011;2902;42.130;24.732;2023-04-29T12:01:47;2.33;;;2.13;;
5754;SDS011;2902;42.130;24.732;2023-04-29T12:04:15;2.90;;;2.70;;
5754;SDS011;2902;42.130;24.732;2023-04-29T12:06:43;3.07;;;2.47;;
5754;SDS011;2902;42.130;24.732;2023-04-29T12:09:10;5.57;;;2.57;;
5754;SDS011;2902;42.130;24.732;2023-04-29T12:11:37;4.07;;;2.30;;
5754;SDS011;2902;42.130;24.732;2023-04-29T12:14:04;3.23;;;2.90;;
5754;SDS011;2902;42.130;24.732;2023-04-29T12:16:31;2.83;;;2.23;;
5754;SDS011;2902;42.130;24.732;2023-04-29T12:18:59;4.00;;;2.57;;
5754;SDS011;2902;42.130;24.732;2023-04-29T12:21:27;2.83;;;2.47;;
5754;SDS011;2902;42.130;24.732;2023-04-29T12:23:57;5.60;;;2.90;;
5754;SDS011;2902;42.130;24.732;2023-04-29T12:26:26;2.80;;;2.30;;
5754;SDS011;2902;42.130;24.732;2023-04-29T12:28:55;2.70;;;2.50;;
5754;SDS011;2902;42.130;24.732;2023-04-29T12:31:23;2.87;;;2.60;;
5754;SDS011;2902;42.130;24.732;2023-04-29T12:33:57;3.23;;;2.93;;
5754;SDS011;2902;42.130;24.732;2023-04-29T12:36:23;4.77;;;1.93;;
5754;SDS011;2902;42.130;24.732;2023-04-29T12:38:52;10.07;;;2.40;;
5754;SDS011;2902;42.130;24.732;2023-04-29T12:41:34;3.10;;;2.77;;
5754;SDS011;2902;42.130;24.732;2023-04-29T12:44:02;4.23;;;2.37;;
5754;SDS011;2902;42.130;24.732;2023-04-29T12:46:33;5.23;;;2.83;;
5754;SDS011;2902;42.130;24.732;2023-04-29T12:49:01;4.70;;;2.83;;
5754;SDS011;2902;42.130;24.732;2023-04-29T12:51:28;6.50;;;2.90;;
5754;SDS011;2902;42.130;24.732;2023-04-29T12:53:57;4.50;;;2.80;;
5754;SDS011;2902;42.130;24.732;2023-04-29T12:56:24;4.63;;;2.87;;
5754;SDS011;2902;42.130;24.732;2023-04-29T12:58:51;3.67;;;2.37;;
5754;SDS011;2902;42.130;24.732;2023-04-29T13:01:18;4.13;;;3.00;;
5754;SDS011;2902;42.130;24.732;2023-04-29T13:03:45;6.33;;;3.10;;
5754;SDS011;2902;42.130;24.732;2023-04-29T13:06:11;4.03;;;2.60;;
5754;SDS011;2902;42.130;24.732;2023-04-29T13:08:38;50.20;;;6.10;;
5754;SDS011;2902;42.130;24.732;2023-04-29T13:11:07;3.27;;;2.70;;
5754;SDS011;2902;42.130;24.732;2023-04-29T13:13:34;13.53;;;3.23;;
5754;SDS011;2902;42.130;24.732;2023-04-29T13:16:00;5.77;;;2.60;;
5754;SDS011;2902;42.130;24.732;2023-04-29T13:18:27;2.47;;;2.37;;
5754;SDS011;2902;42.130;24.732;2023-04-29T13:20:55;5.27;;;2.63;;
5754;SDS011;2902;42.130;24.732;2023-04-29T13:23:22;3.83;;;2.50;;
5754;SDS011;2902;42.130;24.732;2023-04-29T13:25:49;7.03;;;2.63;;
5754;SDS011;2902;42.130;24.732;2023-04-29T13:28:17;3.07;;;2.40;;
5754;SDS011;2902;42.130;24.732;2023-04-29T13:30:44;13.63;;;2.60;;
5754;SDS011;2902;42.130;24.732;2023-04-29T13:33:11;4.63;;;2.90;;
5754;SDS011;2902;42.130;24.732;2023-04-29T13:35:37;8.00;;;2.83;;
5754;SDS011;2902;42.130;24.732;2023-04-29T13:38:05;2.83;;;2.63;;
5754;SDS011;2902;42.130;24.732;2023-04-29T13:40:32;5.03;;;2.80;;
5754;SDS011;2902;42.130;24.732;2023-04-29T13:42:59;5.57;;;2.50;;
5754;SDS011;2902;42.130;24.732;2023-04-29T13:45:27;5.97;;;2.70;;
5754;SDS011;2902;42.130;24.732;2023-04-29T13:47:53;4.10;;;3.23;;
5754;SDS011;2902;42.130;24.732;2023-04-29T13:50:20;2.80;;;2.60;;
5754;SDS011;2902;42.130;24.732;2023-04-29T13:52:47;2.87;;;2.67;;
5754;SDS011;2902;42.130;24.732;2023-04-29T13:55:13;8.53;;;3.13;;
5754;SDS011;2902;42.130;24.732;2023-04-29T13:57:40;4.37;;;3.07;;
5754;SDS011;2902;42.130;24.732;2023-04-29T14:00:07;3.13;;;2.80;;
5754;SDS011;2902;42.130;24.732;2023-04-29T14:02:36;2.70;;;2.57;;
5754;SDS011;2902;42.130;24.732;2023-04-29T14:05:03;2.97;;;2.37;;
5754;SDS011;2902;42.130;24.732;2023-04-29T14:07:30;5.07;;;2.43;;
5754;SDS011;2902;42.130;24.732;2023-04-29T14:09:57;3.30;;;2.67;;
5754;SDS011;2902;42.130;24.732;2023-04-29T14:12:24;5.00;;;2.87;;
5754;SDS011;2902;42.130;24.732;2023-04-29T14:14:51;3.60;;;2.60;;
5754;SDS011;2902;42.130;24.732;2023-04-29T14:17:18;3.13;;;2.83;;
5754;SDS011;2902;42.130;24.732;2023-04-29T14:19:46;3.27;;;2.70;;
5754;SDS011;2902;42.130;24.732;2023-04-29T14:22:13;4.07;;;2.80;;
5754;SDS011;2902;42.130;24.732;2023-04-29T14:24:40;5.43;;;2.77;;
5754;SDS011;2902;42.130;24.732;2023-04-29T14:27:06;4.13;;;2.20;;
5754;SDS011;2902;42.130;24.732;2023-04-29T14:29:33;2.63;;;2.23;;
5754;SDS011;2902;42.130;24.732;2023-04-29T14:32:00;2.80;;;2.57;;
5754;SDS011;2902;42.130;24.732;2023-04-29T14:34:27;2.50;;;2.30;;
5754;SDS011;2902;42.130;24.732;2023-04-29T14:36:55;2.87;;;2.37;;
5754;SDS011;2902;42.130;24.732;2023-04-29T14:39:23;3.60;;;2.73;;
5754;SDS011;2902;42.130;24.732;2023-04-29T14:41:50;2.33;;;2.23;;
5754;SDS011;2902;42.130;24.732;2023-04-29T14:44:16;6.35;;;3.00;;
5754;SDS011;2902;42.130;24.732;2023-04-29T14:46:43;4.53;;;2.77;;
5754;SDS011;2902;42.130;24.732;2023-04-29T14:49:10;3.95;;;2.75;;
5754;SDS011;2902;42.130;24.732;2023-04-29T14:51:37;3.13;;;2.53;;
5754;SDS011;2902;42.130;24.732;2023-04-29T14:54:05;3.23;;;2.90;;
5754;SDS011;2902;42.130;24.732;2023-04-29T14:56:31;3.47;;;3.17;;
5754;SDS011;2902;42.130;24.732;2023-04-29T14:59:00;6.00;;;4.97;;
5754;SDS011;2902;42.130;24.732;2023-04-29T15:01:27;3.30;;;2.53;;